Doresopolis, Brazil
Current Conditions -  °F | °C
As of 12:00 PM on Thursday 30 Oct 2014 (Local Time) from SBBH Reporting Station
Broken Clouds Broken Clouds  
Wind Chill: 72°   Ceiling: 10000
Heat Index: 72°   Visibility: 6mi
Dew Point: 64°   Wind: 2mph
Humidity: 78%   Direction: 250°WSW
Pressure: 30.03"   Gusts: NA
Location:  20.29°S, 45.9°W
Report Text: SBBH 301400Z 25002KT 9999 FEW015 SCT030 BKN100 22/18 Q1017
Loading
Personal Weather Stations






























Interactive Weather Map
Tropical Storm Tracking
New forecast layout! Learn more

10-Day Weather Forecast

Advertisements
Track Severe Weather on mobile